Forbes Airport


Codes: YFBS/FRB
Name: Forbes Airport
City: Forbes,
Country: Australia
Elevation: 760 ft.
Wikipedia:

Photos at Forbes Airport


   Photos courtesy of SpottingLog. You can add your own sightings and photos by signing up for a free trial today.



No photos found.

Weather at Forbes Airport


Time (UTC)DescriptionTempratureWindCloud coverageVisibilityPressureHumidity
16-Jun-2024 00:00Clear Sky7°C7 mph, SW6%10000m1019hPa78%
16-Jun-2024 03:00Clear Sky9°C9 mph, SW5%10000m1018hPa72%
16-Jun-2024 06:00Clear Sky10°C11 mph, SW4%10000m1017hPa67%
16-Jun-2024 09:00Clear Sky7°C7 mph, SW3%10000m1018hPa82%
16-Jun-2024 12:00Clear Sky5°C7 mph, SW2%10000m1019hPa80%
16-Jun-2024 15:00Clear Sky4°C7 mph, SW0%10000m1018hPa81%
16-Jun-2024 18:00Clear Sky3°C4 mph, SW0%10000m1018hPa84%
16-Jun-2024 21:00Clear Sky2°C4 mph, SW0%10000m1020hPa89%
17-Jun-2024 00:00Clear Sky8°C9 mph, SW0%10000m1020hPa62%
17-Jun-2024 03:00Clear Sky12°C9 mph, SW1%10000m1017hPa54%
17-Jun-2024 06:00Clear Sky11°C7 mph, SW3%10000m1017hPa61%
17-Jun-2024 09:00Clear Sky7°C7 mph, SW8%10000m1019hPa77%
17-Jun-2024 12:00Clear Sky6°C4 mph, SW8%10000m1020hPa85%
17-Jun-2024 15:00Clear Sky4°C4 mph, SW5%10000m1020hPa89%
17-Jun-2024 18:00Clear Sky4°C4 mph, SW5%10000m1020hPa92%
17-Jun-2024 21:00Clear Sky3°C2 mph, SW3%10000m1021hPa91%
18-Jun-2024 00:00Clear Sky9°C4 mph, S2%10000m1021hPa69%
18-Jun-2024 03:00Clear Sky12°C4 mph, W0%10000m1019hPa57%
18-Jun-2024 06:00Clear Sky12°C4 mph, SW0%10000m1017hPa61%
18-Jun-2024 09:00Clear Sky7°C4 mph, SW0%10000m1019hPa79%
18-Jun-2024 12:00Scattered Clouds5°C4 mph, SW31%10000m1020hPa88%
18-Jun-2024 15:00Overcast Clouds5°C2 mph, SW99%10000m1019hPa89%
18-Jun-2024 18:00Overcast Clouds4°C2 mph, N100%10000m1018hPa90%
18-Jun-2024 21:00Overcast Clouds3°C2 mph, NE100%10000m1019hPa90%
19-Jun-2024 00:00Broken Clouds9°C2 mph, N61%10000m1019hPa67%
19-Jun-2024 03:00Few Clouds12°C7 mph, NW20%10000m1016hPa46%
19-Jun-2024 06:00Scattered Clouds12°C4 mph, NW34%10000m1015hPa50%
19-Jun-2024 09:00Overcast Clouds9°C4 mph, NW100%10000m1016hPa64%
19-Jun-2024 12:00Light Rain9°C4 mph, N99%10000m1016hPa64%
19-Jun-2024 15:00Light Rain7°C7 mph, N100%10000m1015hPa71%
19-Jun-2024 18:00Overcast Clouds8°C7 mph, NE96%10000m1014hPa76%
19-Jun-2024 21:00Overcast Clouds8°C9 mph, N100%10000m1014hPa67%
20-Jun-2024 00:00Overcast Clouds11°C13 mph, N95%10000m1014hPa56%
20-Jun-2024 03:00Light Rain14°C13 mph, NW73%10000m1012hPa65%
20-Jun-2024 06:00Light Rain11°C9 mph, W77%10000m1013hPa80%
20-Jun-2024 09:00Light Rain7°C2 mph, NW12%10000m1015hPa92%
20-Jun-2024 12:00Light Rain7°C2 mph, NW33%10000m1015hPa91%
20-Jun-2024 15:00Overcast Clouds7°C7 mph, NW99%10000m1015hPa89%
20-Jun-2024 18:00Light Rain7°C9 mph, NW98%10000m1016hPa91%
20-Jun-2024 21:00Light Rain7°C7 mph, NW98%10000m1018hPa94%